Time;durP1;ratioP1;P1;durP2;ratioP2;P2;SDS_P1;SDS_P2;PMS_P1;PMS_P2;Temp;Humidity;BMP_temperature;BMP_pressure;BME280_temperature;BME280_humidity;BME280_pressure;Samples;Min_cycle;Max_cycle;Signal;HPM_P1;HPM_P2
2023/06/18 00:00:38;;;;;;;22.25;13.95;;;;;;;21.53;49.68;101177.81;4993014;28;20027;-67
2023/06/18 00:03:04;;;;;;;21.92;13.77;;;;;;;21.49;50.71;101178.53;4993007;28;20497;-66
2023/06/18 00:05:29;;;;;;;21.25;13.43;;;;;;;21.44;50.55;101178.06;4991694;28;20030;-67
2023/06/18 00:07:55;;;;;;;21.95;13.35;;;;;;;21.37;50.43;101177.91;4993366;28;20459;-66
2023/06/18 00:10:20;;;;;;;21.10;13.75;;;;;;;21.28;50.96;101180.97;4992911;28;20030;-67
2023/06/18 00:12:45;;;;;;;21.63;13.88;;;;;;;21.24;51.51;101178.09;4992680;28;20368;-67
2023/06/18 00:15:10;;;;;;;20.92;13.60;;;;;;;21.12;52.01;101172.59;4992705;28;20118;-66
2023/06/18 00:17:36;;;;;;;22.83;13.95;;;;;;;21.00;52.53;101180.00;4992766;28;20030;-67
2023/06/18 00:20:03;;;;;;;21.85;14.10;;;;;;;20.92;52.55;101181.03;4992606;28;20122;-66
2023/06/18 00:22:28;;;;;;;21.88;14.18;;;;;;;20.86;52.88;101172.06;4992561;28;20038;-67
2023/06/18 00:24:54;;;;;;;22.90;14.30;;;;;;;20.91;52.87;101179.41;4992352;28;20030;-67
2023/06/18 00:27:20;;;;;;;23.70;14.05;;;;;;;20.93;52.65;101168.63;4992784;28;20156;-67
2023/06/18 00:29:47;;;;;;;23.65;14.57;;;;;;;20.94;52.48;101169.41;4992808;28;20058;-66
2023/06/18 00:32:13;;;;;;;22.98;14.55;;;;;;;20.91;53.33;101170.16;4992980;28;20165;-67
2023/06/18 00:34:41;;;;;;;23.10;14.75;;;;;;;20.86;53.47;101165.66;4992595;28;20501;-67
2023/06/18 00:37:09;;;;;;;23.10;15.23;;;;;;;20.83;53.28;101164.38;4992568;28;20034;-66
2023/06/18 00:39:35;;;;;;;20.90;14.43;;;;;;;20.85;53.28;101167.63;4992805;28;20034;-67
2023/06/18 00:42:01;;;;;;;23.40;14.80;;;;;;;20.80;53.64;101169.91;4992437;28;20026;-66
2023/06/18 00:44:26;;;;;;;22.55;14.55;;;;;;;20.79;53.67;101162.66;4992573;28;20591;-67
2023/06/18 00:46:56;;;;;;;23.77;14.65;;;;;;;20.75;54.06;101158.97;4992439;28;20026;-67
2023/06/18 00:49:22;;;;;;;22.52;14.40;;;;;;;20.72;54.07;101160.50;4992697;28;20053;-67
2023/06/18 00:51:48;;;;;;;28.23;15.00;;;;;;;20.64;54.14;101150.31;4992496;28;20061;-67
2023/06/18 00:54:16;;;;;;;24.15;15.27;;;;;;;20.55;54.34;101145.69;4992375;28;20070;-66
2023/06/18 00:56:51;;;;;;;22.02;15.07;;;;;;;20.61;54.44;101148.22;4992347;28;20101;-67
2023/06/18 00:59:22;;;;;;;25.48;15.25;;;;;;;20.54;54.68;101149.69;4992455;28;20044;-67
2023/06/18 01:01:55;;;;;;;22.63;14.77;;;;;;;20.54;54.63;101146.06;4992516;28;20029;-67
2023/06/18 01:04:27;;;;;;;23.40;15.52;;;;;;;20.50;54.86;101145.97;4992295;28;20041;-67
2023/06/18 01:06:54;;;;;;;24.70;15.25;;;;;;;20.37;55.71;101133.22;4992271;28;20038;-67
2023/06/18 01:09:21;;;;;;;22.90;15.18;;;;;;;20.24;56.16;101138.97;4992151;28;20034;-67
2023/06/18 01:11:53;;;;;;;22.42;15.27;;;;;;;20.30;55.57;101145.13;4992115;28;20032;-66
2023/06/18 01:14:21;;;;;;;21.60;14.70;;;;;;;20.33;55.81;101144.38;4992365;28;20203;-67
2023/06/18 01:16:49;;;;;;;22.98;15.40;;;;;;;20.30;56.03;101145.13;4992399;28;20054;-66
2023/06/18 01:19:47;;;;;;;23.30;15.50;;;;;;;20.22;55.45;101144.16;4992511;28;20042;-67
2023/06/18 01:22:30;;;;;;;23.67;15.85;;;;;;;20.07;56.70;101140.19;4989150;28;20570;-66
2023/06/18 01:24:58;;;;;;;22.43;14.80;;;;;;;19.98;57.17;101138.75;4992218;28;20038;-67
2023/06/18 01:27:27;;;;;;;23.65;15.65;;;;;;;19.81;58.28;101126.66;4992086;28;20026;-67
2023/06/18 01:29:54;;;;;;;23.20;15.48;;;;;;;19.79;58.74;101135.47;4991707;28;20121;-67
2023/06/18 01:32:21;;;;;;;22.50;15.60;;;;;;;19.74;58.67;101137.72;4991880;28;20054;-66
2023/06/18 01:34:47;;;;;;;23.15;15.55;;;;;;;19.70;59.29;101139.63;4992043;28;20030;-67
2023/06/18 01:37:53;;;;;;;22.77;15.77;;;;;;;19.69;57.84;101133.19;4991044;28;20089;-67
2023/06/18 01:40:43;;;;;;;25.63;16.17;;;;;;;19.67;58.05;101135.53;4995500;28;20038;-66
2023/06/18 01:43:30;;;;;;;23.95;16.40;;;;;;;19.68;58.05;101139.97;4995717;28;20120;-66
2023/06/18 01:46:01;;;;;;;22.48;15.48;;;;;;;19.56;58.81;101126.03;4995471;28;20045;-66
2023/06/18 01:48:30;;;;;;;23.92;15.93;;;;;;;19.60;59.24;101135.38;4995275;28;20026;-66
2023/06/18 01:50:57;;;;;;;23.98;16.83;;;;;;;19.54;59.88;101131.22;4995228;28;20080;-66
2023/06/18 01:53:25;;;;;;;24.52;16.63;;;;;;;19.51;59.29;101120.69;4995186;28;20022;-66
2023/06/18 01:55:52;;;;;;;24.70;15.75;;;;;;;19.46;59.46;101116.16;4995334;28;20041;-66
2023/06/18 01:58:21;;;;;;;22.98;16.13;;;;;;;19.33;60.70;101118.25;4995895;28;20034;-66
2023/06/18 02:00:46;;;;;;;23.55;17.00;;;;;;;19.28;61.00;101121.28;4995647;28;20099;-66
2023/06/18 02:03:11;;;;;;;24.13;16.17;;;;;;;19.19;61.72;101121.47;4995185;28;20112;-66
2023/06/18 02:05:37;;;;;;;24.92;16.60;;;;;;;19.12;61.49;101113.69;4995090;28;20030;-66
2023/06/18 02:08:02;;;;;;;24.70;16.80;;;;;;;19.08;62.03;101112.75;4995004;28;20120;-66
2023/06/18 02:10:27;;;;;;;24.70;16.45;;;;;;;19.09;62.09;101117.19;4994947;28;20050;-66
2023/06/18 02:12:53;;;;;;;23.98;16.55;;;;;;;19.02;62.07;101114.19;4995042;28;20106;-67
2023/06/18 02:15:20;;;;;;;24.52;16.77;;;;;;;19.01;61.80;101104.97;4995006;28;20443;-66
2023/06/18 02:17:45;;;;;;;23.52;16.55;;;;;;;19.09;61.96;101113.59;4994804;28;20042;-66
2023/06/18 02:20:11;;;;;;;23.40;16.77;;;;;;;19.09;61.72;101108.78;4994826;28;20023;-67
2023/06/18 02:22:37;;;;;;;24.10;16.92;;;;;;;19.11;61.71;101108.44;4994946;28;20587;-66
2023/06/18 02:25:04;;;;;;;24.63;17.52;;;;;;;19.09;61.99;101107.97;4994693;28;20038;-66
2023/06/18 02:27:29;;;;;;;27.73;17.35;;;;;;;19.09;61.75;101110.78;4994506;28;20038;-66
2023/06/18 02:29:55;;;;;;;25.27;16.67;;;;;;;19.05;61.75;101104.25;4994865;28;20498;-67
2023/06/18 02:32:20;;;;;;;24.70;17.00;;;;;;;19.05;61.76;101107.03;4994742;28;20041;-66
2023/06/18 02:34:46;;;;;;;26.30;17.58;;;;;;;18.98;62.20;101111.28;4994584;28;20035;-66
2023/06/18 02:37:11;;;;;;;25.35;18.25;;;;;;;18.90;62.98;101101.03;4994599;28;20041;-67
2023/06/18 02:39:36;;;;;;;24.83;17.63;;;;;;;18.87;62.95;101110.13;4994662;28;20033;-66
2023/06/18 02:42:02;;;;;;;24.92;17.67;;;;;;;18.85;62.97;101104.91;4994445;28;20533;-67
2023/06/18 02:44:31;;;;;;;25.23;17.77;;;;;;;18.80;63.29;101102.34;4994391;28;20030;-66
2023/06/18 02:46:57;;;;;;;24.77;18.33;;;;;;;18.74;63.70;101100.97;4994241;28;20030;-67
2023/06/18 02:49:22;;;;;;;25.05;17.75;;;;;;;18.73;63.48;101096.53;4994057;28;20040;-66
2023/06/18 02:51:47;;;;;;;24.52;18.02;;;;;;;18.61;64.87;101099.41;4994288;28;20113;-66
2023/06/18 02:54:13;;;;;;;25.38;17.48;;;;;;;18.57;64.63;101099.25;4994223;28;20036;-66
2023/06/18 02:56:38;;;;;;;25.30;18.23;;;;;;;18.53;64.84;101099.16;4994193;28;20102;-66
2023/06/18 02:59:04;;;;;;;26.15;18.08;;;;;;;18.48;64.82;101101.38;4994092;28;20026;-66
2023/06/18 03:01:31;;;;;;;24.63;17.65;;;;;;;18.44;65.12;101101.28;4993891;28;20048;-66
2023/06/18 03:03:57;;;;;;;25.45;18.13;;;;;;;18.46;65.09;101101.75;4994097;28;20034;-66
2023/06/18 03:06:23;;;;;;;26.75;18.48;;;;;;;18.46;64.77;101098.97;4993889;28;20034;-66
2023/06/18 03:08:49;;;;;;;26.25;18.33;;;;;;;18.44;64.84;101100.47;4993941;28;20066;-66
2023/06/18 03:11:14;;;;;;;24.70;17.70;;;;;;;18.43;65.22;101099.66;4992417;28;20052;-66
2023/06/18 03:13:39;;;;;;;25.05;18.27;;;;;;;18.42;65.13;101098.00;4993843;28;20030;-66
2023/06/18 03:16:05;;;;;;;24.73;18.02;;;;;;;18.42;65.21;101100.00;4993685;28;20105;-67
2023/06/18 03:18:31;;;;;;;26.55;18.05;;;;;;;18.38;65.27;101099.91;4993834;28;20029;-66
2023/06/18 03:20:56;;;;;;;25.05;18.15;;;;;;;18.30;66.01;101095.25;4993477;28;20442;-66
2023/06/18 03:23:22;;;;;;;25.15;18.02;;;;;;;18.31;65.85;101105.31;4992656;28;20035;-67
2023/06/18 03:25:47;;;;;;;25.42;18.83;;;;;;;18.31;66.22;101100.50;4993587;28;20026;-66
2023/06/18 03:28:12;;;;;;;24.80;18.88;;;;;;;18.34;66.15;101097.00;4993399;28;20133;-66
2023/06/18 03:30:38;;;;;;;25.50;18.65;;;;;;;18.32;65.79;101104.13;4993809;28;20117;-67
2023/06/18 03:33:04;;;;;;;26.20;18.52;;;;;;;18.31;66.19;101099.69;4993488;28;20483;-67
2023/06/18 03:35:30;;;;;;;26.08;18.58;;;;;;;18.26;66.49;101103.56;4993442;28;20445;-67
2023/06/18 03:37:55;;;;;;;26.92;17.67;;;;;;;18.33;66.45;101102.94;4993675;28;20343;-67
2023/06/18 03:40:21;;;;;;;26.45;17.52;;;;;;;18.35;66.10;101106.22;4993397;28;20101;-67
2023/06/18 03:42:46;;;;;;;26.63;18.25;;;;;;;18.36;65.77;101113.44;4993357;28;20030;-67
2023/06/18 03:45:12;;;;;;;28.33;18.30;;;;;;;18.40;65.93;101103.19;4993258;28;20030;-67
2023/06/18 03:47:37;;;;;;;24.90;17.80;;;;;;;18.47;65.88;101105.34;4993223;28;20509;-67
2023/06/18 03:50:02;;;;;;;26.33;18.33;;;;;;;18.50;66.29;101104.66;4993188;28;20042;-67
2023/06/18 03:52:28;;;;;;;24.95;18.15;;;;;;;18.61;65.94;101107.81;4993270;28;20055;-67
2023/06/18 03:54:53;;;;;;;26.35;19.15;;;;;;;18.73;65.30;101104.13;4993078;28;20030;-67
2023/06/18 03:57:19;;;;;;;25.58;18.60;;;;;;;18.81;65.28;101106.78;4993064;28;20136;-67
2023/06/18 03:59:44;;;;;;;24.85;18.33;;;;;;;18.83;65.14;101110.03;4992589;28;20080;-67
2023/06/18 04:02:10;;;;;;;26.70;19.23;;;;;;;18.79;65.67;101120.34;4992699;28;20034;-67
2023/06/18 04:04:35;;;;;;;26.15;19.08;;;;;;;18.69;65.99;101118.03;4992957;28;20030;-67
2023/06/18 04:07:01;;;;;;;27.38;19.75;;;;;;;18.69;65.85;101124.44;4992890;28;20026;-67
2023/06/18 04:09:26;;;;;;;25.50;19.48;;;;;;;18.69;66.03;101129.25;4992960;28;20478;-67
2023/06/18 04:11:53;;;;;;;27.30;20.25;;;;;;;18.75;65.56;101130.63;4992833;28;20181;-67
2023/06/18 04:14:19;;;;;;;27.40;20.02;;;;;;;18.78;65.39;101129.09;4992773;28;20058;-67
2023/06/18 04:16:45;;;;;;;26.65;20.20;;;;;;;18.84;65.48;101134.09;4992681;28;20475;-67
2023/06/18 04:19:10;;;;;;;27.13;20.00;;;;;;;18.86;65.39;101136.53;4992731;28;20038;-67
2023/06/18 04:21:37;;;;;;;30.83;21.88;;;;;;;18.72;66.54;101131.31;4991394;28;20478;-67
2023/06/18 04:24:02;;;;;;;28.08;21.40;;;;;;;18.61;67.11;101130.22;4992793;28;20023;-67
2023/06/18 04:26:28;;;;;;;28.75;21.30;;;;;;;18.55;66.95;101126.84;4992802;28;20077;-67
2023/06/18 04:28:53;;;;;;;29.08;22.17;;;;;;;18.53;67.09;101127.19;4992545;28;20054;-67
2023/06/18 04:31:18;;;;;;;30.48;23.33;;;;;;;18.53;67.36;101124.38;4992655;28;20023;-67
2023/06/18 04:33:44;;;;;;;28.90;22.60;;;;;;;18.57;67.02;101126.47;4992802;28;20022;-67
2023/06/18 04:36:10;;;;;;;30.65;22.98;;;;;;;18.62;66.38;101121.44;4992928;28;20109;-67
2023/06/18 04:38:38;;;;;;;28.98;21.88;;;;;;;18.56;67.25;101120.06;4992709;28;20363;-67
2023/06/18 04:41:03;;;;;;;30.80;22.98;;;;;;;18.53;67.51;101129.19;4992687;28;20034;-67
2023/06/18 04:43:29;;;;;;;30.60;22.77;;;;;;;18.51;67.52;101118.34;4992708;28;20110;-67
2023/06/18 04:45:54;;;;;;;28.63;21.67;;;;;;;18.62;67.29;101120.63;4992418;28;20493;-67
2023/06/18 04:48:19;;;;;;;28.48;22.42;;;;;;;18.58;67.53;101117.72;4992459;28;20478;-67
2023/06/18 04:50:45;;;;;;;29.15;22.80;;;;;;;18.62;67.26;101132.66;4992476;28;20033;-67
2023/06/18 04:53:10;;;;;;;32.13;22.75;;;;;;;18.70;66.96;101128.09;4992460;28;20031;-67
2023/06/18 04:55:37;;;;;;;30.10;22.75;;;;;;;18.76;66.78;101126.66;4992297;28;20042;-67
2023/06/18 04:58:04;;;;;;;34.30;23.83;;;;;;;18.81;66.78;101126.38;4992265;28;20105;-67
2023/06/18 05:00:30;;;;;;;31.10;23.33;;;;;;;18.79;67.26;101120.34;4992189;28;20501;-67
2023/06/18 05:02:57;;;;;;;30.42;24.25;;;;;;;18.78;66.82;101113.09;4992230;28;20026;-67
2023/06/18 05:05:22;;;;;;;31.38;23.23;;;;;;;18.69;67.23;101109.63;4992548;28;20045;-67
2023/06/18 05:07:48;;;;;;;29.60;22.70;;;;;;;18.75;66.61;101113.81;4992186;28;20492;-67
2023/06/18 05:10:13;;;;;;;30.10;23.35;;;;;;;18.80;66.35;101112.75;4992449;28;20497;-67
2023/06/18 05:12:38;;;;;;;31.58;25.30;;;;;;;18.94;66.02;101118.78;4993407;28;20042;-67
2023/06/18 05:15:05;;;;;;;31.70;24.02;;;;;;;18.98;65.29;101119.69;4995791;28;20494;-68
2023/06/18 05:17:30;;;;;;;31.30;24.58;;;;;;;18.96;65.49;101119.25;4996121;28;20030;-67
2023/06/18 05:19:56;;;;;;;30.55;25.40;;;;;;;19.04;65.52;101116.63;4996223;28;20493;-67
2023/06/18 05:22:21;;;;;;;34.10;26.48;;;;;;;19.15;65.08;101126.16;4995982;28;20503;-67
2023/06/18 05:24:46;;;;;;;31.50;26.13;;;;;;;19.28;63.81;101115.69;4995757;28;20037;-67
2023/06/18 05:27:12;;;;;;;31.63;25.73;;;;;;;19.30;63.74;101118.94;4995756;28;20126;-67
2023/06/18 05:29:37;;;;;;;32.15;25.98;;;;;;;19.46;63.11;101127.41;4995437;28;20122;-67
2023/06/18 05:32:03;;;;;;;31.25;25.88;;;;;;;19.54;63.03;101123.59;4995678;28;20041;-67
2023/06/18 05:34:28;;;;;;;32.72;26.02;;;;;;;19.62;62.56;101130.22;4995597;28;20434;-67
2023/06/18 05:36:53;;;;;;;33.28;26.83;;;;;;;19.78;62.04;101133.03;4995556;28;20082;-67
2023/06/18 05:39:19;;;;;;;31.70;25.73;;;;;;;19.92;61.67;101139.00;4995583;28;20062;-67
2023/06/18 05:41:44;;;;;;;33.45;25.63;;;;;;;20.06;60.79;101134.94;4995468;28;20022;-67
2023/06/18 05:44:09;;;;;;;31.10;25.27;;;;;;;20.16;59.47;101137.19;4995374;28;20038;-67
2023/06/18 05:46:35;;;;;;;31.95;25.75;;;;;;;20.37;59.17;101145.28;4995476;28;20031;-67
2023/06/18 05:49:00;;;;;;;29.48;24.27;;;;;;;20.59;58.35;101137.34;4995332;28;20058;-67
2023/06/18 05:51:25;;;;;;;31.83;24.63;;;;;;;20.76;57.67;101144.53;4995391;28;20030;-67
2023/06/18 05:53:51;;;;;;;30.35;23.63;;;;;;;20.89;56.73;101142.41;4995393;28;20031;-67
2023/06/18 05:56:16;;;;;;;31.52;24.65;;;;;;;20.92;56.15;101147.28;4995420;28;20084;-67
2023/06/18 05:58:42;;;;;;;32.15;24.80;;;;;;;21.11;56.46;101143.66;4995253;28;20109;-67
2023/06/18 06:01:07;;;;;;;31.05;25.38;;;;;;;21.19;55.96;101130.53;4995261;28;20030;-67
2023/06/18 06:03:35;;;;;;;29.90;23.85;;;;;;;21.37;54.83;101147.78;4995290;28;20030;-67
2023/06/18 06:06:01;;;;;;;29.67;23.02;;;;;;;21.43;53.12;101143.47;4995209;28;20037;-67
2023/06/18 06:08:26;;;;;;;29.92;22.38;;;;;;;21.51;52.11;101139.56;4995099;28;20030;-67
2023/06/18 06:10:51;;;;;;;28.65;22.05;;;;;;;21.66;51.90;101143.50;4994994;28;20038;-66
2023/06/18 06:13:17;;;;;;;27.48;21.55;;;;;;;21.73;50.76;101151.25;4994882;28;20030;-66
2023/06/18 06:15:42;;;;;;;28.73;21.85;;;;;;;21.75;50.38;101145.25;4994975;28;20026;-66
2023/06/18 06:18:08;;;;;;;28.05;21.73;;;;;;;21.80;50.72;101147.75;4995091;28;20030;-66
2023/06/18 06:20:33;;;;;;;28.33;21.50;;;;;;;21.80;50.46;101147.75;4995002;28;20037;-67
2023/06/18 06:22:58;;;;;;;27.65;21.52;;;;;;;21.92;50.33;101138.28;4994240;28;20069;-67
2023/06/18 06:25:23;;;;;;;27.35;21.48;;;;;;;22.02;49.58;101145.28;4994736;28;20041;-66
2023/06/18 06:27:49;;;;;;;28.50;21.08;;;;;;;22.06;49.05;101146.16;4994242;28;20512;-66
2023/06/18 06:30:14;;;;;;;26.60;21.00;;;;;;;22.18;49.00;101137.50;4993181;28;20030;-66
2023/06/18 06:32:39;;;;;;;29.80;21.17;;;;;;;22.38;48.60;101146.63;4994635;28;20042;-66
2023/06/18 06:35:05;;;;;;;26.70;19.65;;;;;;;22.58;48.15;101155.00;4993207;28;20022;-66
2023/06/18 06:37:32;;;;;;;28.58;21.20;;;;;;;22.88;47.73;101159.81;4994575;28;20035;-66
2023/06/18 06:39:58;;;;;;;29.05;19.63;;;;;;;23.02;46.69;101148.69;4994668;28;20081;-66
2023/06/18 06:42:23;;;;;;;27.38;19.65;;;;;;;23.08;46.20;101151.19;4994473;28;20105;-66
2023/06/18 06:44:48;;;;;;;27.60;19.70;;;;;;;23.09;45.73;101150.81;4994535;28;20028;-66
2023/06/18 06:47:14;;;;;;;26.55;18.48;;;;;;;23.15;45.96;101152.06;4994563;28;20034;-66
2023/06/18 06:49:39;;;;;;;28.00;18.90;;;;;;;23.15;45.79;101151.28;4993015;28;20048;-66
2023/06/18 06:52:05;;;;;;;26.38;18.67;;;;;;;23.19;44.85;101157.81;4994414;28;20035;-67
2023/06/18 06:54:30;;;;;;;26.05;18.90;;;;;;;23.28;45.51;101160.31;4994414;28;20177;-67
2023/06/18 06:56:55;;;;;;;24.83;17.90;;;;;;;23.27;44.50;101169.97;4994267;28;20058;-67
2023/06/18 06:59:21;;;;;;;25.15;17.67;;;;;;;23.19;44.27;101183.22;4994254;28;20034;-67
2023/06/18 07:01:46;;;;;;;26.40;19.23;;;;;;;23.06;44.78;101208.81;4994204;28;20034;-68
2023/06/18 07:04:13;;;;;;;29.92;20.58;;;;;;;22.83;46.31;101200.47;4992954;28;20042;-68
2023/06/18 07:06:39;;;;;;;27.60;21.02;;;;;;;22.70;46.75;101207.53;4994156;28;20026;-68
2023/06/18 07:09:05;;;;;;;28.80;22.60;;;;;;;22.61;47.12;101198.53;4992619;28;20400;-68
2023/06/18 07:11:32;;;;;;;29.55;24.88;;;;;;;22.47;47.83;101196.31;4992522;28;20043;-68
2023/06/18 07:13:58;;;;;;;30.77;24.95;;;;;;;22.42;48.24;101197.44;4994298;28;20034;-68
2023/06/18 07:16:23;;;;;;;29.83;23.80;;;;;;;22.43;48.68;101193.44;4993947;28;20089;-67
2023/06/18 07:18:48;;;;;;;30.42;24.63;;;;;;;22.44;48.48;101193.06;4993733;28;20022;-66
2023/06/18 07:21:14;;;;;;;30.92;22.75;;;;;;;22.44;48.51;101195.88;4993687;28;20031;-66
2023/06/18 07:23:39;;;;;;;27.35;20.90;;;;;;;22.51;47.51;101203.63;4993665;28;20030;-66
2023/06/18 07:26:04;;;;;;;28.02;20.98;;;;;;;22.58;47.84;101191.66;4993555;28;20026;-68
2023/06/18 07:28:30;;;;;;;27.38;20.63;;;;;;;22.70;47.92;101202.72;4993453;28;20463;-67
2023/06/18 07:30:56;;;;;;;26.27;20.15;;;;;;;22.88;47.91;101202.94;4993827;28;20064;-67
2023/06/18 07:33:21;;;;;;;26.05;19.00;;;;;;;23.04;47.31;101191.47;4993541;28;20565;-67
2023/06/18 07:35:47;;;;;;;25.75;18.95;;;;;;;23.19;46.74;101194.50;4992684;28;20143;-67
2023/06/18 07:38:13;;;;;;;25.50;18.70;;;;;;;23.26;46.69;101193.75;4993623;28;20034;-67
2023/06/18 07:40:38;;;;;;;23.85;16.63;;;;;;;23.35;45.06;101200.72;4993343;28;20098;-66
2023/06/18 07:43:04;;;;;;;22.80;15.50;;;;;;;23.44;44.98;101194.75;4993257;28;20035;-66
2023/06/18 07:45:30;;;;;;;24.88;15.57;;;;;;;23.51;43.98;101192.03;4993313;28;20065;-67
2023/06/18 07:47:55;;;;;;;24.85;14.82;;;;;;;23.71;44.33;101196.66;4993360;28;20066;-67
2023/06/18 07:50:21;;;;;;;22.08;14.02;;;;;;;23.76;42.52;101193.44;4993309;28;20060;-68
2023/06/18 07:52:46;;;;;;;25.23;13.93;;;;;;;23.95;42.27;101189.63;4993335;28;20474;-67
2023/06/18 07:55:11;;;;;;;23.83;14.52;;;;;;;24.14;42.26;101192.22;4993258;28;20138;-67
2023/06/18 07:57:38;;;;;;;20.95;13.68;;;;;;;24.17;42.01;101181.34;4993297;28;20383;-68
2023/06/18 08:00:04;;;;;;;24.00;14.77;;;;;;;24.32;41.96;101190.75;4991907;28;20065;-67
2023/06/18 08:02:29;;;;;;;21.73;15.05;;;;;;;24.55;42.65;101187.66;4993277;28;20405;-68
2023/06/18 08:04:55;;;;;;;21.88;15.02;;;;;;;24.72;41.23;101180.47;4993288;28;20022;-67
2023/06/18 08:07:20;;;;;;;23.40;14.32;;;;;;;24.95;41.21;101177.34;4993123;28;20114;-67
2023/06/18 08:09:45;;;;;;;20.15;13.43;;;;;;;25.00;41.62;101182.66;4992997;28;20030;-67
2023/06/18 08:12:11;;;;;;;20.98;12.68;;;;;;;25.18;39.98;101176.25;4992866;28;20034;-67
2023/06/18 08:14:37;;;;;;;20.50;12.48;;;;;;;25.38;39.32;101182.34;4992913;28;20027;-67
2023/06/18 08:17:02;;;;;;;21.60;12.25;;;;;;;25.47;39.66;101176.34;4992974;28;20038;-67
2023/06/18 08:19:28;;;;;;;19.33;11.65;;;;;;;25.61;39.51;101178.38;4992961;28;20022;-68
2023/06/18 08:21:53;;;;;;;19.30;12.38;;;;;;;25.63;39.36;101170.31;4991561;28;20541;-68
2023/06/18 08:24:18;;;;;;;19.75;12.25;;;;;;;25.72;39.00;101178.38;4992875;28;20116;-67
2023/06/18 08:26:44;;;;;;;19.60;11.98;;;;;;;25.83;39.13;101171.53;4991462;28;20033;-67
2023/06/18 08:29:09;;;;;;;19.80;11.88;;;;;;;25.92;39.56;101171.13;4992503;28;20054;-68
2023/06/18 08:31:34;;;;;;;19.98;12.32;;;;;;;25.94;38.96;101171.53;4992825;28;20041;-68
2023/06/18 08:33:59;;;;;;;19.20;11.88;;;;;;;26.01;39.32;101163.00;4992916;28;20425;-68
2023/06/18 08:36:25;;;;;;;20.48;12.30;;;;;;;26.04;39.45;101172.72;4991509;28;20030;-68
2023/06/18 08:38:50;;;;;;;19.50;12.30;;;;;;;25.95;39.60;101172.31;4992786;28;20030;-68
2023/06/18 08:41:16;;;;;;;19.35;11.98;;;;;;;25.91;39.95;101163.03;4992623;28;20022;-68
2023/06/18 08:43:41;;;;;;;20.05;12.45;;;;;;;25.91;39.77;101166.66;4992702;28;20400;-68
2023/06/18 08:46:11;;;;;;;20.52;12.15;;;;;;;25.91;40.38;101171.53;4993044;28;20409;-68
2023/06/18 08:49:00;;;;;;;20.30;12.23;;;;;;;26.03;40.73;101173.16;4996622;28;20030;-67
2023/06/18 08:51:26;;;;;;;20.58;12.88;;;;;;;26.00;40.62;101166.28;4991416;28;20144;-68
2023/06/18 08:54:15;;;;;;;20.38;12.25;;;;;;;25.90;41.03;101155.75;4996461;28;20045;-68
2023/06/18 08:56:45;;;;;;;20.60;12.57;;;;;;;25.97;40.84;101162.22;4996494;28;20493;-67
2023/06/18 08:59:11;;;;;;;20.13;12.73;;;;;;;26.04;40.80;101163.44;4995162;28;20102;-68
2023/06/18 09:01:37;;;;;;;20.25;12.77;;;;;;;25.87;40.59;101160.19;4996401;28;20368;-67
2023/06/18 09:04:04;;;;;;;20.92;12.98;;;;;;;25.90;41.04;101167.06;4996141;28;20080;-67
2023/06/18 09:06:29;;;;;;;20.98;13.63;;;;;;;25.78;41.33;101159.78;4996141;28;20035;-68
2023/06/18 09:08:56;;;;;;;19.95;12.90;;;;;;;25.81;41.54;101164.63;4996196;28;20049;-68
2023/06/18 09:11:22;;;;;;;19.90;12.13;;;;;;;25.88;41.49;101163.84;4996159;28;20188;-68
2023/06/18 09:13:47;;;;;;;20.88;12.82;;;;;;;25.77;41.54;101164.63;4996208;28;20538;-68
2023/06/18 09:16:13;;;;;;;19.85;12.88;;;;;;;25.82;41.96;101164.25;4996062;28;20026;-68
2023/06/18 09:18:38;;;;;;;20.02;12.73;;;;;;;25.83;41.79;101162.22;4996068;28;20026;-68
2023/06/18 09:21:04;;;;;;;20.58;12.55;;;;;;;25.78;42.09;101171.13;4996162;28;20049;-68
2023/06/18 09:23:30;;;;;;;20.30;12.02;;;;;;;25.66;43.11;101161.81;4996001;28;20038;-68
2023/06/18 09:25:56;;;;;;;19.73;12.13;;;;;;;25.62;43.17;101168.69;4995859;28;20022;-68
2023/06/18 09:28:23;;;;;;;20.38;12.43;;;;;;;25.59;43.35;101170.31;4996081;28;20054;-68
2023/06/18 09:30:51;;;;;;;21.10;12.95;;;;;;;25.60;43.59;101165.44;4995904;28;20085;-68
2023/06/18 09:33:35;;;;;;;20.30;13.23;;;;;;;25.49;44.86;101171.09;4995667;28;20030;-68
2023/06/18 09:36:03;;;;;;;21.38;12.88;;;;;;;25.42;45.07;101173.88;4996096;28;20080;-68
2023/06/18 09:38:33;;;;;;;20.65;13.30;;;;;;;25.41;45.09;101173.09;4994504;28;20026;-67
2023/06/18 09:40:59;;;;;;;21.25;13.20;;;;;;;25.46;45.19;101171.88;4995904;28;20105;-68
2023/06/18 09:43:35;;;;;;;21.50;13.13;;;;;;;25.48;44.98;101158.94;4995721;28;20109;-67
2023/06/18 09:46:06;;;;;;;21.35;13.27;;;;;;;25.49;45.01;101163.41;4995840;28;20101;-68
2023/06/18 09:48:36;;;;;;;20.42;12.75;;;;;;;25.46;44.84;101166.22;4995560;28;20027;-67
2023/06/18 09:51:03;;;;;;;21.25;12.88;;;;;;;25.51;45.41;101162.97;4995554;28;20058;-68
2023/06/18 09:53:28;;;;;;;22.75;13.15;;;;;;;25.50;44.91;101158.56;4995660;28;20092;-67
2023/06/18 09:56:06;;;;;;;20.33;12.93;;;;;;;25.47;45.93;101162.19;4995474;28;20058;-67
2023/06/18 09:58:40;;;;;;;20.38;12.75;;;;;;;25.36;45.29;101165.78;4994579;28;20053;-67
2023/06/18 10:01:05;;;;;;;20.73;12.75;;;;;;;25.34;45.64;101168.19;4995599;28;20105;-67
2023/06/18 10:03:30;;;;;;;20.05;12.38;;;;;;;25.41;45.08;101164.59;4994246;28;20201;-68
2023/06/18 10:06:05;;;;;;;21.23;12.65;;;;;;;25.36;45.09;101162.13;4995524;28;20493;-68
2023/06/18 10:08:31;;;;;;;21.80;12.20;;;;;;;25.39;44.98;101172.66;4995213;28;20478;-68
2023/06/18 10:10:56;;;;;;;21.98;12.68;;;;;;;25.48;46.24;101173.09;4995067;28;20028;-68
2023/06/18 10:13:24;;;;;;;20.17;12.98;;;;;;;25.48;47.77;101169.47;4995131;28;20368;-68
2023/06/18 10:15:49;;;;;;;20.67;13.45;;;;;;;25.44;47.26;101177.13;4995046;28;20018;-67
2023/06/18 10:18:22;;;;;;;20.67;13.57;;;;;;;25.45;49.82;101164.59;4995251;28;20462;-67
2023/06/18 10:20:48;;;;;;;21.02;13.15;;;;;;;25.41;50.30;101167.44;4994631;28;20030;-68
2023/06/18 10:23:14;;;;;;;21.52;14.15;;;;;;;25.35;51.79;101166.19;4994880;28;20081;-68
2023/06/18 10:25:40;;;;;;;20.30;13.95;;;;;;;25.23;53.26;101165.34;4994923;28;20034;-68
2023/06/18 10:28:05;;;;;;;20.40;13.98;;;;;;;25.19;51.43;101153.19;4994697;28;20085;-69
2023/06/18 10:30:30;;;;;;;20.10;13.82;;;;;;;25.19;52.82;101149.56;4994940;28;20122;-69
2023/06/18 10:32:56;;;;;;;21.70;14.65;;;;;;;25.16;53.18;101147.50;4994715;28;20109;-68
2023/06/18 10:35:22;;;;;;;21.10;13.73;;;;;;;25.18;52.00;101137.41;4994570;28;20486;-68
2023/06/18 10:37:47;;;;;;;20.60;13.60;;;;;;;25.27;51.68;101142.69;4994281;28;20270;-68
2023/06/18 10:40:13;;;;;;;21.10;14.50;;;;;;;25.38;50.29;101137.03;4994403;28;20027;-68
2023/06/18 10:42:39;;;;;;;20.35;14.23;;;;;;;25.36;49.59;101133.81;4994414;28;20069;-68
2023/06/18 10:45:15;;;;;;;21.52;14.38;;;;;;;25.43;51.24;101133.84;4994353;28;20057;-68
2023/06/18 10:47:42;;;;;;;22.08;14.65;;;;;;;25.22;50.94;101129.75;4994377;28;20034;-68
2023/06/18 10:50:07;;;;;;;21.10;14.02;;;;;;;25.42;52.34;101122.91;4994251;28;20018;-68
2023/06/18 10:52:49;;;;;;;20.83;14.17;;;;;;;25.40;53.31;101114.03;4994419;28;20371;-68
2023/06/18 10:55:17;;;;;;;24.25;14.70;;;;;;;25.40;51.50;101105.53;4994354;28;20033;-68
2023/06/18 10:57:51;;;;;;;21.27;14.13;;;;;;;25.43;51.63;101107.53;4994565;28;20037;-69
2023/06/18 11:00:16;;;;;;;;;;;;;;;25.64;50.40;101101.09;4994826;28;20031;-68
2023/06/18 11:02:42;;;;;;;21.88;14.55;;;;;;;25.52;49.88;101099.47;4994492;28;20289;-67
2023/06/18 11:05:16;;;;;;;20.80;14.18;;;;;;;25.60;50.32;101097.44;4994704;28;20080;-67
2023/06/18 11:07:41;;;;;;;20.88;14.18;;;;;;;25.76;50.83;101097.06;4994204;28;20431;-68